Time;durP1;ratioP1;P1;durP2;ratioP2;P2;SDS_P1;SDS_P2;PMS_P1;PMS_P2;Temp;Humidity;BMP_temperature;BMP_pressure;BME280_temperature;BME280_humidity;BME280_pressure;Samples;Min_cycle;Max_cycle;Signal;HPM_P1;HPM_P2
2022/05/31 00:02:10;;;;;;;5.65;0.68;;;8.80;99.90;;;;;;5054261;28;20438;-74
2022/05/31 00:04:36;;;;;;;2.10;0.60;;;8.80;99.90;;;;;;5054773;28;20028;-74
2022/05/31 00:07:02;;;;;;;1.25;0.52;;;8.90;99.90;;;;;;5054514;28;20467;-74
2022/05/31 00:09:28;;;;;;;1.70;0.80;;;8.90;99.90;;;;;;5054294;28;20029;-74
2022/05/31 00:11:55;;;;;;;1.60;0.73;;;8.90;99.90;;;;;;5053140;28;20046;-74
2022/05/31 00:14:21;;;;;;;4.07;1.33;;;8.90;99.90;;;;;;5054576;28;20036;-73
2022/05/31 00:16:47;;;;;;;0.98;0.47;;;9.00;99.90;;;;;;5053908;28;20025;-74
2022/05/31 00:19:15;;;;;;;4.07;1.17;;;9.00;99.90;;;;;;5053868;28;20067;-74
2022/05/31 00:21:44;;;;;;;2.30;0.63;;;9.30;99.90;;;;;;5053872;28;20075;-73
2022/05/31 00:24:14;;;;;;;5.10;0.52;;;9.10;99.90;;;;;;5053836;28;20124;-73
2022/05/31 00:26:40;;;;;;;5.07;0.52;;;9.10;99.90;;;;;;5052738;28;20067;-74
2022/05/31 00:29:07;;;;;;;1.13;0.60;;;9.10;99.90;;;;;;5054505;28;20028;-73
2022/05/31 00:31:40;;;;;;;1.33;0.85;;;9.10;99.90;;;;;;5053758;28;20017;-74
2022/05/31 00:34:06;;;;;;;1.85;0.55;;;9.10;99.90;;;;;;5053907;28;20032;-74
2022/05/31 00:36:32;;;;;;;1.20;0.40;;;9.10;99.90;;;;;;5053852;28;20070;-73
2022/05/31 00:38:58;;;;;;;1.08;0.40;;;9.10;99.90;;;;;;5052431;28;20021;-74
2022/05/31 00:41:24;;;;;;;2.85;0.50;;;9.10;99.90;;;;;;5053287;28;20144;-74
2022/05/31 00:44:00;;;;;;;0.55;0.38;;;9.10;99.90;;;;;;5053494;28;20159;-74
2022/05/31 00:46:49;;;;;;;1.00;0.50;;;9.00;99.90;;;;;;5053431;28;20107;-74
2022/05/31 00:49:25;;;;;;;4.07;0.40;;;9.00;99.90;;;;;;5052974;28;20404;-74
2022/05/31 00:51:53;;;;;;;1.45;0.82;;;8.90;99.90;;;;;;5053822;28;20475;-74
2022/05/31 00:54:21;;;;;;;1.77;0.30;;;8.90;99.90;;;;;;5053527;28;20021;-74
2022/05/31 00:56:50;;;;;;;1.02;0.30;;;8.90;99.90;;;;;;5054443;28;20025;-74
2022/05/31 00:59:31;;;;;;;3.92;0.52;;;8.90;99.90;;;;;;5053596;28;20017;-74
2022/05/31 01:01:56;;;;;;;1.77;0.60;;;8.80;99.90;;;;;;5052117;28;20115;-74
2022/05/31 01:04:50;;;;;;;2.53;0.57;;;8.80;99.90;;;;;;5052245;28;20052;-74
2022/05/31 01:07:17;;;;;;;0.95;0.40;;;8.70;99.90;;;;;;5052754;28;20434;-74
2022/05/31 01:09:43;;;;;;;1.42;0.43;;;8.70;99.90;;;;;;5054303;28;20484;-74
2022/05/31 01:12:10;;;;;;;0.95;0.35;;;8.70;99.90;;;;;;5053921;28;20028;-74
2022/05/31 01:14:38;;;;;;;1.40;0.40;;;8.60;99.90;;;;;;5052228;28;20052;-74
2022/05/31 01:17:09;;;;;;;1.80;0.30;;;8.60;99.90;;;;;;5053822;28;20021;-74
2022/05/31 01:19:56;;;;;;;2.47;0.50;;;8.60;99.90;;;;;;5052412;28;20112;-74
2022/05/31 01:22:37;;;;;;;6.15;0.63;;;8.50;99.90;;;;;;5054153;28;20083;-74
2022/05/31 01:25:37;;;;;;;1.50;0.65;;;8.50;99.90;;;;;;5052453;28;20053;-74
2022/05/31 01:28:10;;;;;;;3.13;0.40;;;8.40;99.90;;;;;;5053475;28;20029;-74
2022/05/31 01:30:46;;;;;;;1.83;0.50;;;8.40;99.90;;;;;;5052546;28;20115;-74
2022/05/31 01:33:23;;;;;;;5.05;0.30;;;8.40;99.90;;;;;;5052159;28;20471;-74
2022/05/31 01:35:49;;;;;;;1.85;0.35;;;8.30;99.90;;;;;;5053415;28;20029;-76
2022/05/31 01:38:27;;;;;;;0.85;0.40;;;8.30;99.90;;;;;;5053591;28;20091;-76
2022/05/31 01:41:12;;;;;;;1.52;0.50;;;8.20;99.90;;;;;;5053873;28;20422;-76
2022/05/31 01:43:45;;;;;;;1.35;0.60;;;8.20;99.90;;;;;;5053942;28;20025;-75
2022/05/31 01:46:22;;;;;;;3.58;0.60;;;8.20;99.90;;;;;;5054123;28;20032;-76
2022/05/31 01:48:48;;;;;;;2.38;0.55;;;8.20;99.90;;;;;;5051987;28;20032;-76
2022/05/31 01:51:14;;;;;;;1.77;0.63;;;8.20;99.90;;;;;;5052047;28;20116;-76
2022/05/31 01:53:40;;;;;;;1.40;0.60;;;8.20;99.90;;;;;;5054729;28;20483;-76
2022/05/31 01:56:08;;;;;;;1.42;0.43;;;8.20;99.90;;;;;;5057324;28;20438;-76
2022/05/31 01:58:36;;;;;;;2.80;0.47;;;8.20;99.90;;;;;;5055839;28;20017;-76
2022/05/31 02:01:02;;;;;;;1.35;0.60;;;8.20;99.90;;;;;;5057150;28;20043;-76
2022/05/31 02:03:31;;;;;;;1.88;0.50;;;8.20;99.90;;;;;;5055705;28;20021;-76
2022/05/31 02:05:58;;;;;;;2.63;0.73;;;8.20;99.90;;;;;;5056963;28;20024;-76
2022/05/31 02:08:29;;;;;;;0.82;0.35;;;8.20;99.90;;;;;;5055592;28;20070;-76
2022/05/31 02:10:56;;;;;;;1.30;0.68;;;8.20;99.90;;;;;;5057081;28;20029;-76
2022/05/31 02:13:22;;;;;;;1.38;0.25;;;8.20;99.90;;;;;;5056295;28;20017;-76
2022/05/31 02:15:48;;;;;;;2.22;0.52;;;8.20;99.90;;;;;;5057348;28;20159;-76
2022/05/31 02:18:14;;;;;;;1.08;0.40;;;8.20;99.90;;;;;;5055217;28;20079;-76
2022/05/31 02:20:40;;;;;;;2.35;0.60;;;8.20;99.90;;;;;;5056933;28;20028;-76
2022/05/31 02:23:06;;;;;;;1.95;0.35;;;8.20;99.90;;;;;;5056817;28;20031;-76
2022/05/31 02:25:32;;;;;;;4.03;0.40;;;8.40;99.90;;;;;;5056730;28;20491;-76
2022/05/31 02:27:58;;;;;;;0.68;0.47;;;8.50;99.90;;;;;;5057119;28;20108;-76
2022/05/31 02:30:24;;;;;;;1.63;0.63;;;8.20;99.90;;;;;;5056416;28;20064;-76
2022/05/31 02:32:50;;;;;;;3.65;0.70;;;8.30;99.90;;;;;;5055931;28;20033;-76
2022/05/31 02:35:16;;;;;;;1.17;0.52;;;8.30;99.90;;;;;;5056417;28;20032;-76
2022/05/31 02:37:42;;;;;;;3.00;0.52;;;8.30;99.90;;;;;;5055114;28;20389;-76
2022/05/31 02:40:08;;;;;;;1.27;0.50;;;8.30;99.90;;;;;;5056489;28;20031;-76
2022/05/31 02:42:36;;;;;;;2.20;0.65;;;8.40;99.90;;;;;;5056015;28;20112;-76
2022/05/31 02:45:05;;;;;;;1.95;0.38;;;8.40;99.90;;;;;;5056587;28;20040;-76
2022/05/31 02:47:31;;;;;;;1.08;0.60;;;8.40;99.90;;;;;;5056614;28;20116;-76
2022/05/31 02:49:56;;;;;;;1.75;0.43;;;8.40;99.90;;;;;;5056095;28;20029;-76
2022/05/31 02:52:22;;;;;;;3.50;0.77;;;8.40;99.90;;;;;;5056300;28;20468;-76
2022/05/31 02:54:48;;;;;;;4.18;0.98;;;8.40;99.90;;;;;;5054441;28;20021;-76
2022/05/31 02:57:13;;;;;;;1.38;0.50;;;8.40;99.90;;;;;;5056107;28;20021;-76
2022/05/31 02:59:40;;;;;;;4.63;0.70;;;8.40;99.90;;;;;;5054893;28;20024;-76
2022/05/31 03:02:06;;;;;;;1.25;0.63;;;8.30;99.90;;;;;;5056236;28;20515;-73
2022/05/31 03:04:32;;;;;;;1.98;0.95;;;8.70;99.90;;;;;;5055717;28;20100;-74
2022/05/31 03:07:01;;;;;;;1.13;0.73;;;8.30;99.90;;;;;;5056296;28;20033;-74
2022/05/31 03:09:29;;;;;;;2.72;0.38;;;8.30;99.90;;;;;;5054770;28;20491;-74
2022/05/31 03:11:56;;;;;;;1.27;0.45;;;8.30;99.90;;;;;;5056172;28;20422;-74
2022/05/31 03:14:38;;;;;;;1.95;0.63;;;8.30;99.90;;;;;;5054005;28;20031;-74
2022/05/31 03:17:10;;;;;;;1.60;0.60;;;8.30;99.90;;;;;;5055428;28;20105;-74
2022/05/31 03:19:43;;;;;;;1.88;1.05;;;8.30;99.90;;;;;;5055360;28;20083;-74
2022/05/31 03:22:14;;;;;;;1.20;0.35;;;8.30;99.90;;;;;;5055427;28;20029;-74
2022/05/31 03:24:45;;;;;;;2.17;0.50;;;8.40;99.90;;;;;;5055206;28;20060;-74
2022/05/31 03:27:12;;;;;;;2.33;1.00;;;8.40;99.90;;;;;;5055918;28;20420;-74
2022/05/31 03:29:42;;;;;;;1.75;0.30;;;8.40;99.90;;;;;;5055496;28;20029;-74
2022/05/31 03:32:08;;;;;;;1.73;0.43;;;8.40;99.90;;;;;;5055501;28;20121;-74
2022/05/31 03:34:34;;;;;;;1.50;0.55;;;8.40;99.90;;;;;;5055285;28;20017;-74
2022/05/31 03:36:59;;;;;;;7.85;1.38;;;8.50;99.90;;;;;;5055021;28;20498;-74
2022/05/31 03:39:25;;;;;;;1.40;0.60;;;8.50;99.90;;;;;;5053851;28;20060;-74
2022/05/31 03:41:50;;;;;;;1.77;0.70;;;8.50;99.90;;;;;;5055482;28;20017;-74
2022/05/31 03:44:16;;;;;;;1.33;0.45;;;8.50;99.90;;;;;;5054107;28;20100;-74
2022/05/31 03:46:41;;;;;;;2.20;0.98;;;8.50;99.90;;;;;;5055730;28;20056;-74
2022/05/31 03:49:08;;;;;;;0.88;0.30;;;8.60;99.90;;;;;;5053616;28;20150;-74
2022/05/31 03:51:33;;;;;;;5.90;1.05;;;8.50;99.90;;;;;;5053710;28;20029;-74
2022/05/31 03:53:59;;;;;;;2.40;0.82;;;8.60;99.90;;;;;;5053482;28;20458;-74
2022/05/31 03:56:28;;;;;;;3.70;0.65;;;8.60;99.90;;;;;;5054877;28;20476;-74
2022/05/31 03:58:53;;;;;;;7.63;2.35;;;8.60;99.90;;;;;;5054952;28;20056;-74
2022/05/31 04:01:19;;;;;;;3.33;1.10;;;8.60;99.90;;;;;;5054543;28;20064;-74
2022/05/31 04:03:45;;;;;;;1.42;0.70;;;8.70;99.90;;;;;;5055006;28;20021;-74
2022/05/31 04:06:11;;;;;;;2.75;1.63;;;8.70;99.90;;;;;;5054667;28;20025;-74
2022/05/31 04:08:36;;;;;;;3.72;0.80;;;8.80;99.90;;;;;;5054592;28;20438;-74
2022/05/31 04:11:02;;;;;;;6.28;0.60;;;8.80;99.90;;;;;;5054707;28;20116;-74
2022/05/31 04:13:28;;;;;;;2.80;0.90;;;8.80;99.90;;;;;;5054599;28;20021;-74
2022/05/31 04:16:12;;;;;;;2.38;0.55;;;8.90;99.90;;;;;;5052346;28;20033;-74
2022/05/31 04:18:38;;;;;;;3.63;0.88;;;8.90;99.90;;;;;;5054586;28;20017;-74
2022/05/31 04:21:07;;;;;;;3.42;1.00;;;9.00;99.90;;;;;;5053201;28;20025;-74
2022/05/31 04:26:18;;;;;;;3.25;1.00;;;9.00;99.90;;;;;;5054443;28;20079;-74
2022/05/31 04:28:43;;;;;;;3.90;1.27;;;9.10;99.90;;;;;;5054079;28;20491;-74
2022/05/31 04:31:09;;;;;;;4.03;1.25;;;9.10;99.90;;;;;;5053974;28;20036;-74
2022/05/31 04:33:35;;;;;;;4.95;1.05;;;9.20;99.90;;;;;;5054192;28;20361;-74
2022/05/31 04:36:07;;;;;;;3.58;1.05;;;9.20;99.90;;;;;;5054097;28;20024;-74
2022/05/31 04:38:33;;;;;;;2.45;0.80;;;9.30;99.90;;;;;;5054057;28;20025;-74
2022/05/31 04:40:59;;;;;;;2.97;0.75;;;9.40;99.90;;;;;;5053636;28;20025;-74
2022/05/31 04:43:25;;;;;;;1.10;0.80;;;9.50;99.90;;;;;;5054558;28;20032;-74
2022/05/31 04:45:51;;;;;;;1.55;0.85;;;9.50;99.90;;;;;;5053413;28;20044;-74
2022/05/31 04:48:16;;;;;;;2.33;1.15;;;9.50;99.90;;;;;;5053414;28;20522;-74
2022/05/31 04:50:42;;;;;;;2.92;0.93;;;9.50;99.90;;;;;;5053601;28;20035;-74
2022/05/31 04:53:08;;;;;;;3.63;0.77;;;9.60;99.90;;;;;;5053559;28;20021;-74
2022/05/31 04:55:34;;;;;;;2.13;0.98;;;9.60;99.90;;;;;;5053409;28;20552;-74
2022/05/31 04:57:59;;;;;;;3.45;0.90;;;9.70;99.90;;;;;;5053490;28;20041;-74
2022/05/31 05:00:28;;;;;;;1.92;0.90;;;10.30;99.90;;;;;;5053073;28;20024;-74
2022/05/31 05:02:53;;;;;;;5.00;1.05;;;9.70;99.90;;;;;;5051989;28;20403;-74
2022/05/31 05:05:22;;;;;;;6.03;1.73;;;9.90;99.90;;;;;;5053078;28;20017;-73
2022/05/31 05:07:48;;;;;;;3.95;1.23;;;9.90;99.90;;;;;;5053149;28;20601;-74
2022/05/31 05:10:13;;;;;;;5.40;1.60;;;10.00;99.90;;;;;;5053113;28;20025;-73
2022/05/31 05:12:39;;;;;;;2.35;0.60;;;10.10;99.90;;;;;;5053399;28;20498;-74
2022/05/31 05:15:05;;;;;;;2.20;1.33;;;10.20;99.90;;;;;;5051733;28;20052;-74
2022/05/31 05:17:31;;;;;;;2.25;1.48;;;10.30;99.90;;;;;;5052997;28;20028;-73
2022/05/31 05:19:57;;;;;;;1.75;0.93;;;10.50;99.90;;;;;;5052943;28;20040;-74
2022/05/31 05:22:23;;;;;;;5.15;1.00;;;10.60;99.90;;;;;;5053505;28;20032;-74
2022/05/31 05:24:48;;;;;;;4.53;0.93;;;10.80;99.90;;;;;;5052921;28;20396;-74
2022/05/31 05:27:14;;;;;;;3.63;1.25;;;11.00;99.90;;;;;;5053253;28;20028;-74
2022/05/31 05:32:24;;;;;;;3.92;0.80;;;11.40;99.90;;;;;;5056889;28;20036;-74
2022/05/31 05:34:54;;;;;;;2.83;0.70;;;11.50;99.90;;;;;;5057746;28;20024;-74
2022/05/31 05:37:21;;;;;;;2.85;1.13;;;11.60;99.90;;;;;;5057086;28;20025;-74
2022/05/31 05:39:46;;;;;;;2.20;1.20;;;11.80;99.90;;;;;;5056697;28;20028;-74
2022/05/31 05:42:13;;;;;;;5.50;1.52;;;11.80;99.90;;;;;;5057039;28;20027;-74
2022/05/31 05:44:39;;;;;;;4.40;2.13;;;11.80;99.90;;;;;;5056804;28;20388;-75
2022/05/31 05:47:10;;;;;;;4.65;1.05;;;11.80;99.90;;;;;;5056922;28;20017;-74
2022/05/31 05:49:35;;;;;;;2.13;1.15;;;11.90;99.90;;;;;;5057087;28;20029;-74
2022/05/31 05:52:03;;;;;;;3.10;1.00;;;11.90;99.90;;;;;;5056719;28;20521;-74
2022/05/31 05:54:29;;;;;;;4.88;1.67;;;11.90;99.90;;;;;;5054963;28;20025;-74
2022/05/31 05:56:54;;;;;;;4.47;1.42;;;11.90;99.90;;;;;;5056600;28;20031;-74
2022/05/31 05:59:20;;;;;;;8.38;1.90;;;11.90;99.90;;;;;;5056353;28;20391;-74
2022/05/31 06:02:01;;;;;;;5.53;1.88;;;11.90;99.90;;;;;;5056201;22;20076;-78
2022/05/31 06:04:33;;;;;;;3.17;1.70;;;12.00;99.90;;;;;;5037865;28;20164;-78
2022/05/31 06:07:15;;;;;;;2.25;1.20;;;12.20;99.90;;;;;;5036466;28;20024;-78
2022/05/31 06:09:47;;;;;;;4.15;1.75;;;12.30;99.90;;;;;;5037837;28;20034;-78
2022/05/31 06:12:17;;;;;;;3.30;1.20;;;12.50;99.90;;;;;;5036273;28;20108;-78
2022/05/31 06:14:47;;;;;;;6.90;1.67;;;12.60;99.90;;;;;;5037241;28;20021;-78
2022/05/31 06:17:23;;;;;;;7.25;1.10;;;12.80;99.90;;;;;;5035869;28;20120;-78
2022/05/31 06:19:49;;;;;;;2.75;1.33;;;12.90;99.90;;;;;;5037775;28;20135;-78
2022/05/31 06:22:16;;;;;;;2.90;1.65;;;13.00;99.90;;;;;;5037576;28;20499;-78
2022/05/31 06:24:43;;;;;;;5.35;1.80;;;13.20;99.90;;;;;;5037573;28;20468;-78
2022/05/31 06:27:09;;;;;;;3.78;2.08;;;13.30;99.90;;;;;;5037802;28;20021;-78
2022/05/31 06:29:35;;;;;;;1.83;1.05;;;13.40;99.90;;;;;;5037052;28;20026;-78
2022/05/31 06:32:00;;;;;;;7.15;1.15;;;13.40;99.90;;;;;;5036668;28;20550;-78
2022/05/31 06:34:26;;;;;;;4.80;1.63;;;13.50;99.90;;;;;;5037527;28;20021;-78
2022/05/31 06:37:09;;;;;;;2.88;1.27;;;13.70;99.90;;;;;;5035822;28;20029;-78
2022/05/31 06:39:37;;;;;;;1.60;0.82;;;13.80;99.90;;;;;;5036599;28;20033;-78
2022/05/31 06:42:04;;;;;;;2.53;0.82;;;14.00;99.90;;;;;;5037345;28;20033;-78
2022/05/31 06:44:34;;;;;;;5.75;1.13;;;14.20;99.90;;;;;;5037476;28;20032;-78
2022/05/31 06:47:00;;;;;;;4.65;1.17;;;14.40;99.90;;;;;;5037146;28;20025;-78
2022/05/31 06:49:26;;;;;;;6.18;1.13;;;14.60;99.90;;;;;;5037567;28;20392;-78
2022/05/31 06:57:19;;;;;;;3.90;0.60;;;15.10;99.90;;;;;;5035685;28;20076;-73
2022/05/31 06:59:45;;;;;;;3.85;0.60;;;15.20;99.90;;;;;;5035308;28;20026;-73
2022/05/31 07:02:10;;;;;;;7.68;0.82;;;15.30;99.90;;;;;;5033839;28;20480;-73
2022/05/31 07:04:37;;;;;;;1.55;0.30;;;15.30;99.90;;;;;;5035127;28;20021;-73
2022/05/31 07:07:04;;;;;;;8.75;0.98;;;15.40;99.90;;;;;;5035172;28;20037;-73
2022/05/31 07:09:30;;;;;;;4.63;0.68;;;15.60;99.90;;;;;;5035133;28;20112;-74
2022/05/31 07:11:57;;;;;;;1.80;0.43;;;15.70;99.90;;;;;;5035108;28;20441;-74
2022/05/31 07:14:24;;;;;;;3.50;0.32;;;15.90;99.90;;;;;;5035287;28;20388;-74
2022/05/31 07:16:49;;;;;;;2.60;0.52;;;16.00;99.90;;;;;;5033717;28;20044;-74
2022/05/31 07:19:15;;;;;;;4.50;0.65;;;16.10;99.90;;;;;;5035225;28;20460;-74
2022/05/31 07:21:41;;;;;;;1.85;0.10;;;16.30;99.90;;;;;;5034840;28;20026;-74
2022/05/31 07:24:06;;;;;;;1.70;0.40;;;16.30;98.90;;;;;;5034809;28;20025;-74
2022/05/31 07:26:32;;;;;;;2.40;0.30;;;16.50;95.40;;;;;;5033538;28;20030;-74
2022/05/31 07:28:57;;;;;;;2.40;0.30;;;16.50;96.00;;;;;;5034736;28;20469;-74
2022/05/31 07:31:23;;;;;;;2.05;0.70;;;16.60;96.90;;;;;;5033417;28;20500;-74
2022/05/31 07:33:48;;;;;;;2.53;0.88;;;16.60;96.80;;;;;;5033383;28;20024;-74
2022/05/31 07:36:14;;;;;;;1.60;0.75;;;16.50;97.10;;;;;;5034686;28;20025;-74
2022/05/31 07:38:41;;;;;;;7.18;1.10;;;16.40;97.10;;;;;;5034560;28;20126;-73
2022/05/31 07:41:07;;;;;;;7.40;0.95;;;16.40;98.80;;;;;;5034907;28;20041;-74
2022/05/31 07:43:33;;;;;;;4.70;2.10;;;16.20;98.80;;;;;;5034416;28;20036;-74
2022/05/31 07:46:10;;;;;;;4.60;1.27;;;16.20;97.70;;;;;;5034414;28;20022;-74
2022/05/31 07:48:37;;;;;;;2.53;1.30;;;16.00;98.20;;;;;;5033200;28;20034;-74
2022/05/31 07:51:04;;;;;;;2.88;1.40;;;15.90;99.00;;;;;;5034163;28;20081;-74
2022/05/31 07:53:31;;;;;;;3.75;1.60;;;16.00;98.40;;;;;;5034299;28;20475;-74
2022/05/31 07:55:58;;;;;;;8.25;3.03;;;16.20;98.00;;;;;;5034483;28;20032;-76
2022/05/31 07:58:32;;;;;;;7.70;2.20;;;16.40;97.70;;;;;;5032953;28;20018;-75
2022/05/31 08:01:10;;;;;;;8.15;2.20;;;16.50;96.70;;;;;;5034070;28;20030;-75
2022/05/31 08:03:37;;;;;;;13.20;3.53;;;16.60;95.70;;;;;;5034169;28;20044;-74
2022/05/31 08:06:04;;;;;;;12.02;3.72;;;16.70;95.70;;;;;;5033905;28;20029;-74
2022/05/31 08:08:30;;;;;;;8.80;2.90;;;16.70;96.20;;;;;;5034017;28;20028;-74
2022/05/31 08:10:56;;;;;;;5.68;2.50;;;17.40;97.30;;;;;;5034285;28;20053;-74
2022/05/31 08:13:22;;;;;;;5.32;2.85;;;16.80;95.60;;;;;;5032618;28;20025;-74
2022/05/31 08:15:47;;;;;;;5.60;2.90;;;16.80;95.50;;;;;;5033918;28;20112;-74
2022/05/31 08:18:13;;;;;;;7.95;2.92;;;16.70;95.00;;;;;;5033858;28;20028;-74
2022/05/31 08:20:39;;;;;;;4.43;2.58;;;16.70;95.70;;;;;;5034395;28;20036;-74
2022/05/31 08:23:05;;;;;;;6.95;2.30;;;16.60;96.10;;;;;;5033783;28;20029;-73
2022/05/31 08:25:33;;;;;;;5.50;2.78;;;16.60;94.60;;;;;;5033633;28;20028;-74
2022/05/31 08:28:00;;;;;;;6.97;2.33;;;16.70;92.90;;;;;;5032454;28;20025;-74
2022/05/31 08:30:26;;;;;;;4.95;2.72;;;16.70;94.00;;;;;;5033529;28;20072;-73
2022/05/31 08:32:52;;;;;;;2.58;1.83;;;16.90;94.20;;;;;;5033615;28;20057;-73
2022/05/31 08:35:18;;;;;;;5.43;2.45;;;17.00;91.30;;;;;;5033751;28;20032;-74
2022/05/31 08:37:44;;;;;;;5.80;2.22;;;17.10;91.40;;;;;;5033555;28;20048;-74
2022/05/31 08:40:11;;;;;;;4.25;2.00;;;17.30;91.70;;;;;;5032235;28;20100;-74
2022/05/31 08:42:44;;;;;;;5.90;2.75;;;17.40;91.30;;;;;;5033844;28;20100;-74
2022/05/31 08:45:26;;;;;;;4.50;1.33;;;17.50;88.80;;;;;;5033725;28;20025;-74
2022/05/31 08:48:32;;;;;;;5.15;2.38;;;17.50;87.40;;;;;;5032186;28;20033;-74
2022/05/31 08:56:56;;;;;;;7.30;2.67;;;17.60;83.10;;;;;;5033316;28;20392;-74
2022/05/31 08:59:29;;;;;;;5.78;2.00;;;17.60;85.40;;;;;;5033837;28;20557;-74
2022/05/31 09:01:59;;;;;;;5.00;1.52;;;17.80;84.80;;;;;;5032791;28;20037;-74
2022/05/31 09:04:35;;;;;;;3.42;1.55;;;17.90;81.30;;;;;;5033428;28;20377;-74
2022/05/31 09:07:07;;;;;;;4.28;1.25;;;17.90;77.50;;;;;;5033116;28;20025;-74
2022/05/31 09:09:58;;;;;;;2.30;1.20;;;17.70;76.70;;;;;;5033430;28;20018;-74
2022/05/31 09:12:43;;;;;;;4.65;1.70;;;17.90;75.30;;;;;;5031909;28;20071;-74
2022/05/31 09:15:40;;;;;;;3.30;2.00;;;18.00;77.00;;;;;;5031714;28;20021;-74
2022/05/31 09:18:22;;;;;;;6.25;1.42;;;18.20;76.80;;;;;;5023832;28;20037;-74
2022/05/31 09:21:01;;;;;;;7.00;2.35;;;18.40;77.60;;;;;;5033079;28;20025;-74
2022/05/31 09:23:31;;;;;;;6.75;2.22;;;18.50;73.40;;;;;;5031828;28;20025;-74
2022/05/31 09:26:09;;;;;;;6.65;1.40;;;18.60;72.00;;;;;;5032940;28;20108;-74
2022/05/31 09:28:53;;;;;;;3.97;1.42;;;18.70;69.80;;;;;;5031795;28;20033;-74
2022/05/31 09:31:56;;;;;;;2.90;1.20;;;18.50;68.50;;;;;;5032803;28;20116;-74
2022/05/31 09:34:39;;;;;;;2.25;1.00;;;18.30;69.80;;;;;;5032853;28;20541;-74
2022/05/31 09:37:43;;;;;;;2.47;0.77;;;18.00;69.60;;;;;;5032814;28;20030;-74
2022/05/31 09:40:33;;;;;;;6.28;1.00;;;17.70;66.20;;;;;;5032825;28;20438;-74
2022/05/31 09:43:31;;;;;;;5.00;1.42;;;17.80;69.70;;;;;;5033119;28;20579;-74
2022/05/31 09:46:06;;;;;;;3.22;1.27;;;18.20;70.90;;;;;;5031637;28;20054;-74
2022/05/31 09:48:32;;;;;;;3.30;0.85;;;18.60;69.00;;;;;;5032930;28;20033;-74
2022/05/31 09:51:24;;;;;;;6.15;1.65;;;19.20;69.60;;;;;;5031524;28;20383;-74
2022/05/31 09:59:24;;;;;;;2.35;1.00;;;20.30;63.70;;;;;;5033024;28;20107;-74
2022/05/31 10:01:51;;;;;;;1.25;0.28;;;20.20;62.20;;;;;;5032581;28;20404;-74
2022/05/31 10:04:26;;;;;;;8.27;0.80;;;20.00;60.10;;;;;;5032623;28;20028;-74
2022/05/31 10:07:04;;;;;;;9.98;1.80;;;19.70;59.10;;;;;;5032571;28;20041;-74
2022/05/31 10:09:43;;;;;;;3.40;1.23;;;19.70;61.20;;;;;;5032661;28;20024;-74
2022/05/31 10:12:21;;;;;;;3.70;0.55;;;19.70;61.10;;;;;;5032606;28;20256;-74
2022/05/31 10:14:50;;;;;;;6.07;1.83;;;19.60;60.40;;;;;;5033664;28;20022;-74
2022/05/31 10:17:15;;;;;;;;;;;19.50;60.00;;;;;;5036431;28;20638;-74
2022/05/31 10:19:41;;;;;;;4.20;1.40;;;19.40;61.00;;;;;;5036549;28;19925;-74
2022/05/31 10:22:23;;;;;;;2.75;1.80;;;19.20;61.60;;;;;;5035936;28;20021;-73
2022/05/31 10:24:48;;;;;;;2.25;1.00;;;19.10;62.20;;;;;;5036156;28;20100;-74
2022/05/31 10:27:21;;;;;;;5.90;2.58;;;19.00;64.50;;;;;;5035938;28;20060;-74
2022/05/31 10:29:52;;;;;;;3.22;1.35;;;18.90;64.30;;;;;;5035979;28;20032;-74
2022/05/31 10:32:41;;;;;;;3.75;2.03;;;18.90;66.00;;;;;;5035945;28;20026;-74
2022/05/31 10:35:18;;;;;;;7.70;1.95;;;18.90;64.70;;;;;;5034172;28;20369;-74
2022/05/31 10:38:23;;;;;;;3.75;0.85;;;19.30;64.30;;;;;;5036023;28;20036;-74
2022/05/31 10:40:57;;;;;;;8.07;2.58;;;19.80;64.50;;;;;;5033435;28;20038;-74
2022/05/31 10:43:33;;;;;;;6.80;1.77;;;19.70;62.10;;;;;;5034278;28;20064;-74
2022/05/31 10:46:02;;;;;;;5.38;1.70;;;19.50;64.00;;;;;;5035359;28;20059;-74
2022/05/31 10:48:29;;;;;;;1.85;1.17;;;19.30;62.20;;;;;;5035375;28;20033;-74
2022/05/31 10:51:03;;;;;;;7.15;1.70;;;19.20;64.60;;;;;;5035652;28;20032;-74
2022/05/31 10:53:46;;;;;;;4.43;0.98;;;19.00;62.90;;;;;;5034231;28;20028;-74
2022/05/31 10:56:20;;;;;;;1.65;0.68;;;18.80;62.30;;;;;;5034002;28;20163;-74
2022/05/31 10:59:00;;;;;;;2.50;1.30;;;18.70;61.40;;;;;;5034085;28;20029;-74
2022/05/31 11:02:08;;;;;;;4.65;0.38;;;18.60;61.90;;;;;;5035208;28;20049;-73
2022/05/31 11:04:51;;;;;;;4.70;1.03;;;18.50;61.40;;;;;;5019723;28;20047;-74
2022/05/31 11:07:19;;;;;;;2.20;0.63;;;18.40;61.90;;;;;;5035213;28;20033;-74
2022/05/31 11:13:05;;;;;;;1.60;0.40;;;18.20;61.70;;;;;;5035946;28;20040;-74
2022/05/31 11:15:55;;;;;;;1.23;0.60;;;18.20;62.50;;;;;;5034984;28;20028;-74
2022/05/31 11:18:38;;;;;;;2.42;0.30;;;18.20;65.00;;;;;;5034990;28;20103;-74
2022/05/31 11:21:22;;;;;;;4.93;0.88;;;18.20;71.60;;;;;;5034983;28;20036;-74
2022/05/31 11:24:01;;;;;;;2.92;0.70;;;18.20;65.90;;;;;;5033676;28;20021;-74
2022/05/31 11:26:35;;;;;;;;;;;18.30;65.20;;;;;;5034926;28;20132;-74
2022/05/31 11:29:25;;;;;;;1.75;0.70;;;18.40;64.00;;;;;;5033591;28;19905;-74
2022/05/31 11:32:00;;;;;;;2.55;0.80;;;18.60;62.50;;;;;;5034608;28;20576;-74
2022/05/31 11:34:48;;;;;;;3.42;1.00;;;18.80;62.00;;;;;;5034559;28;20025;-74
2022/05/31 11:37:32;;;;;;;3.30;1.02;;;19.10;62.70;;;;;;5035231;28;20021;-74
2022/05/31 11:40:13;;;;;;;3.35;1.25;;;19.50;65.00;;;;;;5034904;28;20427;-74
2022/05/31 11:42:59;;;;;;;2.63;1.38;;;19.70;60.60;;;;;;5035172;28;20384;-74
2022/05/31 11:45:43;;;;;;;5.15;1.65;;;19.90;60.60;;;;;;5034477;28;20025;-74
2022/05/31 11:48:30;;;;;;;2.13;1.45;;;20.20;58.60;;;;;;5033196;28;20472;-74
2022/05/31 11:51:08;;;;;;;4.25;1.50;;;20.30;56.50;;;;;;5034346;28;20030;-74
2022/05/31 11:53:52;;;;;;;4.85;0.70;;;20.90;58.00;;;;;;5034647;28;20022;-74
2022/05/31 11:56:27;;;;;;;2.67;0.90;;;21.30;58.00;;;;;;5034802;28;20048;-74
2022/05/31 11:59:00;;;;;;;3.53;1.17;;;21.50;56.20;;;;;;5034231;28;20556;-74
2022/05/31 12:01:57;;;;;;;4.47;0.93;;;21.20;53.00;;;;;;5034161;28;20050;-73
2022/05/31 12:04:38;;;;;;;2.70;1.03;;;20.70;52.80;;;;;;5032261;28;20041;-73
2022/05/31 12:07:21;;;;;;;1.17;0.55;;;20.20;55.10;;;;;;5034232;28;20260;-73
2022/05/31 12:09:53;;;;;;;4.55;0.70;;;19.80;58.50;;;;;;5032904;28;20500;-74
2022/05/31 12:12:33;;;;;;;3.08;0.73;;;19.70;63.10;;;;;;5034316;28;20029;-75
2022/05/31 12:15:09;;;;;;;4.13;0.77;;;19.50;63.10;;;;;;5034074;28;20507;-74
2022/05/31 12:17:51;;;;;;;4.43;0.82;;;19.30;65.00;;;;;;5034616;28;20029;-75
2022/05/31 12:20:29;;;;;;;4.43;0.63;;;19.30;68.60;;;;;;5034093;28;20029;-75
2022/05/31 12:23:19;;;;;;;3.17;1.33;;;19.20;68.20;;;;;;5033792;28;20420;-75
2022/05/31 12:25:54;;;;;;;2.88;0.70;;;19.10;69.40;;;;;;5033707;28;20030;-75
2022/05/31 12:28:25;;;;;;;3.88;0.45;;;19.20;70.40;;;;;;5032474;28;20017;-75
2022/05/31 12:30:57;;;;;;;1.63;0.20;;;19.30;71.80;;;;;;5033599;28;20029;-75
2022/05/31 12:33:44;;;;;;;6.03;0.55;;;19.60;73.50;;;;;;5032309;28;20033;-75
2022/05/31 12:36:12;;;;;;;4.63;0.40;;;20.00;71.30;;;;;;5033521;28;20025;-75
2022/05/31 12:39:06;;;;;;;5.75;0.93;;;20.90;71.30;;;;;;5031583;28;20427;-75
2022/05/31 12:41:45;;;;;;;3.83;0.55;;;22.00;64.60;;;;;;5029260;28;20037;-75
2022/05/31 12:44:25;;;;;;;3.42;0.98;;;22.90;59.50;;;;;;5033359;28;20025;-75
2022/05/31 12:46:51;;;;;;;2.28;0.70;;;23.50;55.90;;;;;;5033422;28;20492;-75
2022/05/31 12:49:17;;;;;;;1.42;0.80;;;23.80;58.00;;;;;;5033380;28;20074;-75
2022/05/31 12:52:18;;;;;;;1.05;0.35;;;24.20;58.50;;;;;;5032016;28;20053;-75
2022/05/31 12:54:45;;;;;;;1.75;0.40;;;24.40;54.20;;;;;;5032022;28;20025;-75
2022/05/31 13:00:45;;;;;;;3.30;0.60;;;24.20;51.20;;;;;;5033879;28;20068;-76
2022/05/31 13:03:34;;;;;;;3.80;0.45;;;23.70;51.30;;;;;;5031984;28;20041;-76
2022/05/31 13:06:02;;;;;;;2.85;0.60;;;23.00;51.80;;;;;;5027635;28;20063;-75
2022/05/31 13:08:54;;;;;;;3.17;0.50;;;22.50;52.40;;;;;;5033784;28;20024;-75
2022/05/31 13:20:31;;;;;;;3.17;0.25;;;20.20;57.70;;;;;;5033336;28;20413;-75
2022/05/31 13:23:07;;;;;;;4.25;0.50;;;19.60;59.70;;;;;;5033337;28;20472;-75
2022/05/31 13:25:43;;;;;;;2.13;0.40;;;19.20;61.70;;;;;;5032956;28;20037;-76
2022/05/31 13:28:49;;;;;;;1.40;0.20;;;18.90;63.30;;;;;;5033584;28;20447;-75
2022/05/31 13:31:19;;;;;;;4.63;0.63;;;18.50;68.70;;;;;;5023974;28;20040;-75
2022/05/31 13:33:44;;;;;;;3.30;0.77;;;18.10;75.50;;;;;;5033269;28;20025;-75
2022/05/31 13:36:21;;;;;;;2.38;0.35;;;17.80;78.10;;;;;;5033339;28;20028;-75
2022/05/31 13:38:51;;;;;;;2.50;0.38;;;17.50;90.50;;;;;;5032841;28;20025;-75
2022/05/31 13:41:19;;;;;;;9.88;2.75;;;17.20;94.30;;;;;;5032748;28;20021;-75
2022/05/31 13:43:50;;;;;;;4.30;2.03;;;16.90;98.60;;;;;;5032798;28;20057;-75
2022/05/31 13:46:20;;;;;;;6.05;2.25;;;16.60;99.90;;;;;;5032837;28;20033;-75
2022/05/31 13:48:58;;;;;;;6.45;2.50;;;16.20;99.90;;;;;;5032751;28;20025;-76
2022/05/31 13:51:26;;;;;;;4.18;2.08;;;15.80;99.90;;;;;;5036756;28;20065;-75
2022/05/31 13:53:52;;;;;;;5.00;2.50;;;15.40;99.90;;;;;;5036734;28;20420;-76